Time;durP1;ratioP1;P1;durP2;ratioP2;P2;SDS_P1;SDS_P2;PMS_P1;PMS_P2;Temp;Humidity;BMP_temperature;BMP_pressure;BME280_temperature;BME280_humidity;BME280_pressure;Samples;Min_cycle;Max_cycle;Signal;HPM_P1;HPM_P2
2023/05/24 00:01:28;;;;;;;30.05;5.78;;;8.10;99.90;;;;;;5135286;27;20276;-62
2023/05/24 00:04:00;;;;;;;35.67;6.40;;;8.20;99.90;;;;;;5133937;27;20073;-62
2023/05/24 00:06:26;;;;;;;28.95;6.63;;;7.50;99.90;;;;;;5115263;27;20048;-62
2023/05/24 00:08:55;;;;;;;24.90;5.70;;;7.30;99.90;;;;;;5134070;27;20562;-62
2023/05/24 00:11:21;;;;;;;30.80;6.35;;;7.40;99.90;;;;;;5134453;27;20048;-62
2023/05/24 00:13:48;;;;;;;29.48;6.53;;;8.50;99.90;;;;;;5135589;27;20137;-62
2023/05/24 00:16:14;;;;;;;28.48;6.97;;;7.50;99.90;;;;;;5133573;27;20518;-61
2023/05/24 00:18:40;;;;;;;32.47;5.57;;;;;;;;;;5133460;27;20049;-62
2023/05/24 00:21:09;;;;;;;31.38;5.70;;;9.50;99.90;;;;;;5132583;27;20133;-62
2023/05/24 00:23:36;;;;;;;22.10;5.53;;;9.50;99.90;;;;;;5134454;27;20146;-62
2023/05/24 00:26:05;;;;;;;26.83;6.18;;;8.90;99.90;;;;;;5116491;27;20114;-62
2023/05/24 00:28:31;;;;;;;24.67;5.35;;;7.50;99.90;;;;;;5134018;27;20719;-62
2023/05/24 00:30:59;;;;;;;28.00;5.93;;;8.40;99.90;;;;;;5133103;27;20035;-62
2023/05/24 00:33:26;;;;;;;35.63;6.88;;;7.80;99.90;;;;;;5133773;27;20117;-63
2023/05/24 00:35:55;;;;;;;28.15;5.82;;;9.00;99.90;;;;;;5115949;27;20038;-62
2023/05/24 00:38:27;;;;;;;30.85;6.28;;;7.60;99.90;;;;;;5133437;27;20121;-62
2023/05/24 00:40:56;;;;;;;24.50;5.40;;;7.60;99.90;;;;;;5113785;27;20499;-62
2023/05/24 00:43:23;;;;;;;27.17;5.53;;;7.70;99.90;;;;;;5097401;27;20042;-62
2023/05/24 00:46:11;;;;;;;30.33;5.78;;;7.70;99.90;;;;;;5133666;27;20403;-62
2023/05/24 00:48:37;;;;;;;25.10;5.13;;;7.70;99.90;;;;;;5133756;27;20039;-62
2023/05/24 00:51:03;;;;;;;25.40;5.20;;;7.70;99.90;;;;;;5134445;27;20075;-63
2023/05/24 00:53:29;;;;;;;26.92;5.60;;;7.70;99.90;;;;;;5133557;27;20087;-63
2023/05/24 00:55:55;;;;;;;28.92;5.70;;;7.70;99.90;;;;;;5116654;27;20088;-62
2023/05/24 00:58:25;;;;;;;25.00;5.93;;;7.80;99.90;;;;;;5114687;27;20606;-62
2023/05/24 01:00:56;;;;;;;29.23;5.75;;;7.80;99.90;;;;;;5114870;27;20046;-62
2023/05/24 01:03:22;;;;;;;28.55;5.40;;;7.60;99.90;;;;;;5133660;27;20038;-62
2023/05/24 01:05:48;;;;;;;29.85;6.78;;;7.80;99.90;;;;;;5133418;27;20076;-63
2023/05/24 01:08:27;;;;;;;21.17;4.88;;;7.70;99.90;;;;;;5114801;27;20046;-62
2023/05/24 01:11:03;;;;;;;28.33;6.18;;;7.70;99.90;;;;;;5132081;27;20597;-62
2023/05/24 01:13:56;;;;;;;25.65;5.18;;;7.80;99.90;;;;;;5132937;27;20053;-62
2023/05/24 01:16:39;;;;;;;24.13;6.03;;;7.80;99.90;;;;;;5131037;27;20466;-63
2023/05/24 01:19:29;;;;;;;25.92;5.40;;;7.70;99.90;;;;;;5131885;27;20076;-62
2023/05/24 01:22:24;;;;;;;28.75;5.55;;;7.90;99.90;;;;;;5131876;27;20407;-62
2023/05/24 01:25:03;;;;;;;23.02;5.22;;;7.80;99.90;;;;;;5131420;27;20396;-62
2023/05/24 01:27:32;;;;;;;30.15;6.07;;;7.70;99.90;;;;;;5132177;27;20060;-62
2023/05/24 01:29:59;;;;;;;34.10;6.10;;;7.70;99.90;;;;;;5131688;27;20042;-62
2023/05/24 01:32:25;;;;;;;23.63;5.70;;;7.60;99.90;;;;;;5132005;27;20039;-62
2023/05/24 01:34:50;;;;;;;18.42;4.97;;;7.60;99.90;;;;;;5132536;27;20045;-63
2023/05/24 01:37:16;;;;;;;27.75;5.07;;;8.30;99.90;;;;;;5132599;27;20073;-62
2023/05/24 01:39:42;;;;;;;22.92;5.25;;;7.40;99.90;;;;;;5112657;27;20035;-63
2023/05/24 01:42:33;;;;;;;20.15;4.32;;;7.70;99.90;;;;;;5114928;27;20590;-63
2023/05/24 01:45:10;;;;;;;23.05;5.40;;;7.80;99.90;;;;;;5113440;27;20602;-63
2023/05/24 01:48:09;;;;;;;24.38;5.63;;;7.80;99.90;;;;;;5131665;27;20039;-62
2023/05/24 01:50:42;;;;;;;20.13;4.60;;;7.70;99.90;;;;;;5112554;27;20046;-62
2023/05/24 01:53:11;;;;;;;20.25;4.72;;;9.70;99.90;;;;;;5132319;27;20123;-63
2023/05/24 01:55:38;;;;;;;22.25;4.55;;;7.90;99.90;;;;;;5132073;27;20043;-62
2023/05/24 01:58:06;;;;;;;22.30;6.05;;;7.50;99.90;;;;;;5112851;27;20035;-62
2023/05/24 02:00:33;;;;;;;29.40;5.78;;;7.80;99.90;;;;;;5113655;27;20140;-62
2023/05/24 02:03:03;;;;;;;20.05;4.78;;;9.00;99.90;;;;;;5131946;27;20055;-62
2023/05/24 02:05:31;;;;;;;20.85;4.68;;;7.70;99.90;;;;;;5112730;27;20133;-63
2023/05/24 02:07:56;;;;;;;22.02;4.95;;;7.60;99.90;;;;;;5097160;27;20133;-62
2023/05/24 02:10:22;;;;;;;24.63;4.75;;;7.70;99.90;;;;;;5132049;27;20039;-62
2023/05/24 02:12:48;;;;;;;23.75;5.07;;;7.70;99.90;;;;;;5131315;27;20506;-63
2023/05/24 02:15:13;;;;;;;35.25;5.57;;;7.70;99.90;;;;;;5115368;27;20054;-62
2023/05/24 02:17:41;;;;;;;23.02;5.10;;;7.90;99.90;;;;;;5131019;27;20054;-63
2023/05/24 02:20:08;;;;;;;24.15;4.57;;;7.60;99.90;;;;;;5130691;27;20150;-62
2023/05/24 02:22:34;;;;;;;30.42;5.18;;;7.80;99.90;;;;;;5114876;27;20183;-62
2023/05/24 02:25:00;;;;;;;24.77;5.18;;;7.90;99.90;;;;;;5096909;27;20039;-62
2023/05/24 02:27:26;;;;;;;17.00;4.47;;;9.00;99.90;;;;;;5132231;27;20070;-61
2023/05/24 02:29:51;;;;;;;27.17;5.20;;;8.80;99.90;;;;;;5131066;27;20034;-62
2023/05/24 02:32:17;;;;;;;27.15;5.78;;;9.30;99.90;;;;;;5132662;27;20110;-62
2023/05/24 02:34:43;;;;;;;20.80;4.60;;;10.10;99.90;;;;;;5130566;27;20877;-62
2023/05/24 02:37:13;;;;;;;24.75;5.05;;;8.00;99.90;;;;;;5112048;27;20074;-63
2023/05/24 02:39:40;;;;;;;24.42;4.88;;;7.80;99.90;;;;;;5130840;27;20114;-63
2023/05/24 02:42:07;;;;;;;18.55;4.60;;;7.90;99.90;;;;;;5131474;27;20061;-62
2023/05/24 02:44:33;;;;;;;19.95;4.85;;;7.70;99.90;;;;;;5112298;27;20074;-62
2023/05/24 02:46:59;;;;;;;28.20;4.95;;;7.70;99.90;;;;;;5131693;27;20042;-62
2023/05/24 02:49:25;;;;;;;23.55;5.30;;;7.80;99.90;;;;;;5131254;27;20263;-61
2023/05/24 02:51:51;;;;;;;20.85;6.07;;;7.90;99.90;;;;;;5130938;27;20032;-63
2023/05/24 02:54:17;;;;;;;22.55;4.30;;;7.70;99.90;;;;;;5113681;27;20074;-62
2023/05/24 02:56:43;;;;;;;28.20;5.78;;;8.20;99.90;;;;;;5132230;27;20081;-64
2023/05/24 02:59:10;;;;;;;30.33;6.13;;;7.90;99.90;;;;;;5113058;27;20046;-63
2023/05/24 03:01:35;;;;;;;24.40;5.80;;;7.80;99.90;;;;;;5096093;27;20556;-62
2023/05/24 03:04:01;;;;;;;25.73;4.47;;;7.80;99.90;;;;;;5115464;27;20051;-63
2023/05/24 03:06:28;;;;;;;28.10;4.95;;;;;;;;;;5115744;27;20058;-63
2023/05/24 03:08:53;;;;;;;21.25;4.97;;;8.00;99.90;;;;;;5133922;27;20115;-63
2023/05/24 03:11:20;;;;;;;23.45;4.65;;;9.30;99.90;;;;;;5134979;27;20042;-62
2023/05/24 03:13:48;;;;;;;19.83;4.75;;;8.00;99.90;;;;;;5132805;27;20273;-62
2023/05/24 03:16:13;;;;;;;23.23;4.85;;;8.30;99.90;;;;;;5133711;27;20054;-63
2023/05/24 03:18:39;;;;;;;21.73;4.38;;;8.10;99.90;;;;;;5133307;27;20055;-63
2023/05/24 03:21:06;;;;;;;26.02;5.07;;;8.90;99.90;;;;;;5134971;27;20542;-63
2023/05/24 03:23:32;;;;;;;18.67;5.05;;;9.80;99.90;;;;;;5134524;27;20043;-62
2023/05/24 03:25:57;;;;;;;21.77;5.07;;;8.20;99.90;;;;;;5134426;27;20050;-62
2023/05/24 03:28:23;;;;;;;20.50;4.80;;;8.40;99.90;;;;;;5136844;27;20054;-63
2023/05/24 03:30:49;;;;;;;22.90;4.32;;;8.10;99.90;;;;;;5115998;27;20115;-62
2023/05/24 03:33:15;;;;;;;28.15;5.60;;;8.20;99.90;;;;;;5117096;27;20431;-62
2023/05/24 03:35:40;;;;;;;23.73;5.78;;;8.20;99.90;;;;;;5115512;27;20069;-61
2023/05/24 03:38:06;;;;;;;27.20;5.65;;;8.90;99.90;;;;;;5134783;27;20326;-59
2023/05/24 03:40:33;;;;;;;18.10;4.00;;;8.30;99.90;;;;;;5134212;27;20050;-61
2023/05/24 03:42:59;;;;;;;31.45;5.68;;;8.20;99.90;;;;;;5116630;27;20111;-61
2023/05/24 03:45:25;;;;;;;20.70;4.43;;;8.40;99.90;;;;;;5133479;27;20502;-61
2023/05/24 03:47:50;;;;;;;21.83;4.82;;;9.10;99.90;;;;;;5118060;27;20133;-61
2023/05/24 03:50:16;;;;;;;22.20;4.32;;;8.20;99.90;;;;;;5134232;27;20038;-61
2023/05/24 03:52:42;;;;;;;19.30;4.25;;;8.50;99.90;;;;;;5135148;27;20050;-61
2023/05/24 03:55:08;;;;;;;18.85;4.07;;;8.30;99.90;;;;;;5115534;27;20031;-61
2023/05/24 03:57:34;;;;;;;25.10;5.28;;;8.30;99.90;;;;;;5117764;27;20041;-61
2023/05/24 04:00:00;;;;;;;24.23;4.28;;;9.30;99.90;;;;;;5132793;27;20220;-60
2023/05/24 04:02:25;;;;;;;24.05;3.92;;;8.60;99.90;;;;;;5133153;27;20042;-61
2023/05/24 04:04:52;;;;;;;22.80;4.13;;;8.80;99.90;;;;;;5132605;27;21116;-61
2023/05/24 04:07:18;;;;;;;23.33;4.20;;;8.70;99.90;;;;;;5135193;27;20042;-61
2023/05/24 04:09:44;;;;;;;21.52;4.30;;;8.70;99.90;;;;;;5114499;27;20448;-61
2023/05/24 04:12:10;;;;;;;21.05;4.50;;;8.60;99.90;;;;;;5134127;27;20054;-61
2023/05/24 04:14:36;;;;;;;19.90;4.30;;;8.70;99.90;;;;;;5133525;27;20073;-61
2023/05/24 04:17:04;;;;;;;20.92;3.80;;;8.70;99.90;;;;;;5134174;27;20035;-61
2023/05/24 04:19:30;;;;;;;23.80;5.03;;;8.90;99.90;;;;;;5131588;27;20166;-61
2023/05/24 04:21:56;;;;;;;19.27;5.10;;;8.80;99.90;;;;;;5134206;27;20544;-59
2023/05/24 04:24:22;;;;;;;25.35;4.22;;;10.30;99.90;;;;;;5134414;27;20126;-59
2023/05/24 04:26:48;;;;;;;19.15;4.22;;;8.80;99.90;;;;;;5134872;27;20038;-59
2023/05/24 04:29:14;;;;;;;21.20;4.43;;;8.90;99.90;;;;;;5115885;27;20035;-59
2023/05/24 04:31:42;;;;;;;23.48;4.40;;;9.00;99.90;;;;;;5132813;27;20043;-59
2023/05/24 04:34:08;;;;;;;20.60;4.32;;;9.00;99.90;;;;;;5131557;27;20052;-59
2023/05/24 04:36:34;;;;;;;24.42;4.07;;;9.10;99.90;;;;;;5132766;27;20035;-59
2023/05/24 04:39:03;;;;;;;21.20;3.90;;;9.10;99.90;;;;;;5133210;27;20039;-59
2023/05/24 04:41:34;;;;;;;23.05;3.95;;;9.20;99.90;;;;;;5132679;27;20038;-59
2023/05/24 04:44:00;;;;;;;20.50;4.10;;;9.20;99.90;;;;;;5131881;27;20047;-59
2023/05/24 04:46:26;;;;;;;21.23;3.95;;;9.20;99.90;;;;;;5134055;27;20066;-59
2023/05/24 04:48:53;;;;;;;20.55;5.60;;;10.30;99.90;;;;;;5133814;27;20314;-59
2023/05/24 04:51:20;;;;;;;23.90;4.85;;;9.30;99.90;;;;;;5133506;27;20437;-59
2023/05/24 04:53:46;;;;;;;21.90;5.47;;;9.50;99.90;;;;;;5134751;27;20047;-59
2023/05/24 04:56:13;;;;;;;21.67;4.38;;;9.50;99.90;;;;;;5133613;27;20548;-59
2023/05/24 04:58:40;;;;;;;20.58;3.97;;;9.60;99.90;;;;;;5115589;27;20083;-59
2023/05/24 05:01:06;;;;;;;19.83;5.03;;;9.80;99.90;;;;;;5115706;27;20073;-59
2023/05/24 05:03:32;;;;;;;25.55;4.50;;;9.70;99.90;;;;;;5133403;27;20139;-59
2023/05/24 05:05:58;;;;;;;23.33;5.22;;;9.50;99.90;;;;;;5133489;27;20118;-59
2023/05/24 05:08:24;;;;;;;25.42;4.68;;;9.60;99.90;;;;;;5116237;27;20062;-59
2023/05/24 05:10:49;;;;;;;17.92;3.80;;;9.50;99.90;;;;;;5133283;27;20042;-59
2023/05/24 05:13:15;;;;;;;19.17;3.88;;;9.60;99.90;;;;;;5131293;27;20050;-59
2023/05/24 05:15:41;;;;;;;23.45;4.13;;;9.80;99.90;;;;;;5132574;27;20138;-59
2023/05/24 05:18:07;;;;;;;24.90;4.60;;;9.60;99.90;;;;;;5132486;27;20055;-59
2023/05/24 05:20:33;;;;;;;18.90;4.13;;;9.60;99.90;;;;;;5132072;27;20043;-59
2023/05/24 05:22:59;;;;;;;19.55;3.85;;;9.60;99.90;;;;;;5131782;27;20047;-59
2023/05/24 05:25:25;;;;;;;26.23;5.22;;;9.70;99.90;;;;;;5133058;27;20507;-59
2023/05/24 05:27:50;;;;;;;24.25;4.30;;;9.60;99.90;;;;;;5114360;27;20778;-58
2023/05/24 05:30:16;;;;;;;21.63;4.45;;;9.80;99.90;;;;;;5132726;27;20125;-59
2023/05/24 05:32:42;;;;;;;22.88;4.45;;;9.70;99.90;;;;;;5133147;27;20490;-60
2023/05/24 05:35:08;;;;;;;31.25;5.00;;;9.80;99.90;;;;;;5131548;27;20671;-59
2023/05/24 05:37:34;;;;;;;20.13;4.78;;;9.90;99.90;;;;;;5131806;27;20099;-60
2023/05/24 05:39:59;;;;;;;15.30;4.00;;;10.10;99.90;;;;;;5130642;27;20051;-59
2023/05/24 05:42:25;;;;;;;15.15;3.78;;;10.00;99.90;;;;;;5131798;27;20066;-59
2023/05/24 05:44:51;;;;;;;30.58;5.15;;;10.00;99.90;;;;;;5112681;27;20047;-59
2023/05/24 05:47:17;;;;;;;22.45;4.68;;;10.10;99.90;;;;;;5131184;27;20043;-59
2023/05/24 05:49:43;;;;;;;22.95;5.32;;;10.20;99.90;;;;;;5114327;27;20059;-59
2023/05/24 05:52:08;;;;;;;19.88;4.50;;;10.20;99.90;;;;;;5132350;27;20280;-59
2023/05/24 05:54:34;;;;;;;20.20;4.60;;;10.20;99.90;;;;;;5112915;27;20141;-59
2023/05/24 05:57:00;;;;;;;26.33;4.53;;;10.40;99.90;;;;;;5131643;27;20035;-60
2023/05/24 05:59:26;;;;;;;22.73;5.03;;;8.90;99.90;;;;;;5133047;27;20046;-59
2023/05/24 06:01:51;;;;;;;19.30;4.55;;;10.40;99.90;;;;;;5132021;27;20049;-59
2023/05/24 06:04:17;;;;;;;20.33;3.95;;;12.40;99.90;;;;;;5131400;27;20058;-59
2023/05/24 06:06:47;;;;;;;24.15;4.80;;;10.50;99.90;;;;;;5132653;27;20083;-59
2023/05/24 06:09:13;;;;;;;14.73;3.40;;;10.40;99.90;;;;;;5132568;27;20062;-60
2023/05/24 06:11:41;;;;;;;14.90;4.13;;;10.70;99.90;;;;;;5132808;27;20242;-59
2023/05/24 06:14:07;;;;;;;17.73;3.70;;;10.50;99.90;;;;;;5132315;27;20070;-59
2023/05/24 06:16:33;;;;;;;18.58;3.70;;;10.60;99.90;;;;;;5132605;27;20495;-59
2023/05/24 06:18:58;;;;;;;16.52;4.15;;;10.60;99.90;;;;;;5113198;27;20070;-59
2023/05/24 06:21:25;;;;;;;15.95;3.88;;;10.50;99.90;;;;;;5113246;27;20150;-59
2023/05/24 06:23:51;;;;;;;16.55;3.92;;;11.30;99.90;;;;;;5132741;27;20071;-60
2023/05/24 06:26:17;;;;;;;15.30;3.45;;;10.80;99.90;;;;;;5132861;27;20043;-60
2023/05/24 06:28:42;;;;;;;20.15;4.68;;;10.70;99.90;;;;;;5133429;27;20046;-59
2023/05/24 06:31:09;;;;;;;21.65;3.67;;;10.90;99.90;;;;;;5130883;27;20138;-59
2023/05/24 06:33:35;;;;;;;18.20;3.97;;;10.70;99.90;;;;;;5129981;27;20495;-59
2023/05/24 06:36:00;;;;;;;15.93;3.60;;;10.80;99.90;;;;;;5113278;27;20038;-60
2023/05/24 06:38:26;;;;;;;24.25;4.43;;;10.90;99.90;;;;;;5133593;27;20923;-59
2023/05/24 06:40:53;;;;;;;23.33;3.90;;;11.00;99.90;;;;;;5136836;27;20038;-59
2023/05/24 06:43:19;;;;;;;15.07;3.53;;;11.00;99.90;;;;;;5116854;27;20054;-59
2023/05/24 06:45:45;;;;;;;18.38;3.50;;;11.00;99.90;;;;;;5135845;27;20030;-59
2023/05/24 06:48:11;;;;;;;16.88;3.67;;;11.00;99.90;;;;;;5116690;27;20039;-59
2023/05/24 06:50:37;;;;;;;18.33;3.40;;;11.20;99.90;;;;;;5136184;27;20099;-59
2023/05/24 06:53:03;;;;;;;15.95;3.80;;;11.10;99.90;;;;;;5135939;27;20128;-59
2023/05/24 06:55:29;;;;;;;12.73;3.22;;;11.20;99.90;;;;;;5116875;27;20566;-60
2023/05/24 06:57:54;;;;;;;16.63;3.85;;;11.20;99.90;;;;;;5137315;27;20494;-59
2023/05/24 07:00:21;;;;;;;16.15;3.10;;;11.80;99.90;;;;;;5116672;27;20050;-60
2023/05/24 07:02:46;;;;;;;13.32;3.58;;;12.30;99.90;;;;;;5135107;27;20038;-60
2023/05/24 07:05:13;;;;;;;12.25;3.40;;;12.60;99.90;;;;;;5135564;27;20760;-62
2023/05/24 07:07:39;;;;;;;15.18;3.42;;;12.60;99.90;;;;;;5136092;27;20047;-60
2023/05/24 07:10:07;;;;;;;16.25;4.45;;;12.50;99.90;;;;;;5117035;27;20049;-59
2023/05/24 07:12:33;;;;;;;18.95;3.85;;;12.30;99.90;;;;;;5134301;27;20548;-59
2023/05/24 07:14:59;;;;;;;16.17;3.28;;;12.50;99.90;;;;;;5116336;27;20051;-60
2023/05/24 07:17:25;;;;;;;20.02;4.28;;;12.30;99.90;;;;;;5135324;27;20038;-61
2023/05/24 07:19:51;;;;;;;22.85;3.92;;;12.30;99.90;;;;;;5136040;27;20035;-60
2023/05/24 07:22:16;;;;;;;19.08;3.50;;;12.20;99.90;;;;;;5135009;27;20047;-60
2023/05/24 07:24:42;;;;;;;13.90;3.13;;;12.10;99.90;;;;;;5134615;27;20066;-60
2023/05/24 07:27:08;;;;;;;18.02;3.38;;;12.30;99.90;;;;;;5136872;27;20540;-59
2023/05/24 07:29:34;;;;;;;21.98;3.65;;;12.20;99.90;;;;;;5136824;27;20146;-60
2023/05/24 07:31:59;;;;;;;21.83;4.10;;;12.40;99.90;;;;;;5135563;27;20042;-59
2023/05/24 07:34:28;;;;;;;17.50;4.28;;;12.40;99.90;;;;;;5135128;27;20042;-60
2023/05/24 07:36:55;;;;;;;15.95;3.95;;;12.10;99.90;;;;;;5134759;27;20034;-60
2023/05/24 07:39:22;;;;;;;14.90;3.17;;;12.10;99.90;;;;;;5136218;27;20140;-60
2023/05/24 07:41:47;;;;;;;18.70;3.65;;;12.10;99.90;;;;;;5135722;27;20038;-59
2023/05/24 07:44:13;;;;;;;18.60;4.35;;;11.90;99.90;;;;;;5135680;27;20030;-60
2023/05/24 07:46:39;;;;;;;12.80;3.70;;;12.10;99.90;;;;;;5135800;27;20080;-60
2023/05/24 07:49:05;;;;;;;16.50;3.50;;;12.10;99.90;;;;;;5136163;27;20043;-59
2023/05/24 07:51:31;;;;;;;15.30;4.00;;;12.00;99.90;;;;;;5136198;27;20365;-60
2023/05/24 07:53:57;;;;;;;15.50;3.88;;;12.00;99.90;;;;;;5136310;27;20042;-60
2023/05/24 07:56:23;;;;;;;16.02;4.03;;;11.90;99.90;;;;;;5134661;27;20047;-60
2023/05/24 07:58:50;;;;;;;21.55;4.95;;;12.10;99.90;;;;;;5139044;27;20046;-60
2023/05/24 08:01:17;;;;;;;19.95;4.50;;;14.20;99.90;;;;;;5116876;27;20424;-60
2023/05/24 08:03:44;;;;;;;14.75;3.97;;;12.20;99.90;;;;;;5134664;27;20037;-60
2023/05/24 08:06:10;;;;;;;18.48;3.78;;;12.20;99.90;;;;;;5133671;27;20055;-60
2023/05/24 08:08:36;;;;;;;18.75;4.47;;;12.10;99.90;;;;;;5134143;27;20046;-60
2023/05/24 08:11:01;;;;;;;17.42;3.67;;;12.10;99.90;;;;;;5135038;27;20095;-60
2023/05/24 08:13:27;;;;;;;13.82;3.30;;;12.10;99.90;;;;;;5134071;27;20125;-59
2023/05/24 08:15:53;;;;;;;16.80;3.70;;;12.10;99.90;;;;;;5134263;27;20066;-59
2023/05/24 08:18:19;;;;;;;20.35;4.43;;;12.10;99.90;;;;;;5136097;27;20111;-59
2023/05/24 08:20:44;;;;;;;14.07;3.25;;;12.00;99.90;;;;;;5134466;27;20091;-59
2023/05/24 08:23:10;;;;;;;12.98;3.42;;;12.20;99.90;;;;;;5115822;27;20269;-60
2023/05/24 08:25:36;;;;;;;18.70;3.88;;;12.20;99.90;;;;;;5133695;27;21130;-60
2023/05/24 08:28:02;;;;;;;17.58;3.72;;;12.40;99.90;;;;;;5134689;27;20077;-60
2023/05/24 08:30:28;;;;;;;18.02;3.60;;;12.40;99.90;;;;;;5134473;27;20066;-59
2023/05/24 08:32:53;;;;;;;15.02;3.33;;;12.50;99.90;;;;;;5114570;27;20038;-60
2023/05/24 08:35:19;;;;;;;14.57;3.53;;;12.60;99.90;;;;;;5134220;27;20065;-60
2023/05/24 08:37:46;;;;;;;17.50;4.30;;;12.80;99.90;;;;;;5134760;27;20038;-59
2023/05/24 08:40:12;;;;;;;20.83;3.67;;;12.80;99.90;;;;;;5115056;27;20284;-60
2023/05/24 08:42:39;;;;;;;15.98;3.40;;;13.00;99.90;;;;;;5099384;27;21208;-60
2023/05/24 08:45:11;;;;;;;17.30;3.75;;;12.40;99.90;;;;;;5133320;27;20050;-60
2023/05/24 08:47:37;;;;;;;14.13;3.67;;;13.20;99.90;;;;;;5134755;27;20128;-60
2023/05/24 08:50:05;;;;;;;15.25;2.90;;;13.20;99.90;;;;;;5132678;27;20026;-59
2023/05/24 08:52:31;;;;;;;9.57;3.22;;;13.20;99.90;;;;;;5113652;27;21082;-60
2023/05/24 08:55:01;;;;;;;10.52;2.47;;;13.20;99.90;;;;;;5132578;27;21177;-60
2023/05/24 08:57:27;;;;;;;10.70;2.42;;;13.30;99.90;;;;;;5132573;27;20078;-60
2023/05/24 08:59:54;;;;;;;11.73;2.50;;;13.10;99.90;;;;;;5133717;27;20519;-60
2023/05/24 09:02:21;;;;;;;10.85;2.95;;;13.40;99.90;;;;;;5133656;27;20550;-60
2023/05/24 09:04:49;;;;;;;10.35;2.53;;;13.20;99.90;;;;;;5114973;27;20146;-60
2023/05/24 09:07:18;;;;;;;11.27;2.65;;;13.20;99.90;;;;;;5134719;27;20051;-60
2023/05/24 09:09:48;;;;;;;14.45;2.90;;;13.40;99.90;;;;;;5133771;27;20042;-59
2023/05/24 09:12:17;;;;;;;10.93;3.00;;;13.30;99.90;;;;;;5114320;27;20034;-60
2023/05/24 09:14:48;;;;;;;12.65;2.85;;;13.60;99.90;;;;;;5134167;27;20134;-60
2023/05/24 09:17:14;;;;;;;9.35;2.60;;;13.00;99.90;;;;;;5116012;27;20534;-59
2023/05/24 09:19:46;;;;;;;11.57;2.97;;;13.20;99.90;;;;;;5132296;27;20498;-60
2023/05/24 09:22:13;;;;;;;14.90;2.85;;;13.00;99.90;;;;;;5130652;27;20178;-60
2023/05/24 09:24:46;;;;;;;9.98;2.55;;;13.20;99.90;;;;;;5131540;27;20114;-60
2023/05/24 09:27:22;;;;;;;13.55;3.10;;;13.00;99.90;;;;;;5131257;27;20101;-60
2023/05/24 09:29:50;;;;;;;17.05;2.78;;;13.00;99.90;;;;;;5133806;27;20057;-60
2023/05/24 09:32:17;;;;;;;11.82;2.85;;;13.00;99.90;;;;;;5131167;27;20050;-60
2023/05/24 09:34:46;;;;;;;9.43;3.13;;;13.10;99.90;;;;;;5132541;27;20045;-60
2023/05/24 09:37:16;;;;;;;10.93;2.55;;;13.30;99.90;;;;;;5131103;27;20796;-60
2023/05/24 09:39:50;;;;;;;11.35;3.28;;;13.40;99.90;;;;;;5131225;27;20043;-59
2023/05/24 09:42:19;;;;;;;12.30;2.53;;;13.40;99.90;;;;;;5128321;27;20880;-60
2023/05/24 09:44:57;;;;;;;14.23;3.00;;;13.60;99.90;;;;;;5129642;27;20507;-60
2023/05/24 09:47:30;;;;;;;10.32;3.10;;;13.60;99.90;;;;;;5130617;27;20026;-60
2023/05/24 09:49:56;;;;;;;16.02;3.95;;;14.00;99.90;;;;;;5129613;27;20484;-60
2023/05/24 09:52:22;;;;;;;13.93;3.22;;;14.20;99.90;;;;;;5132676;27;20157;-60
2023/05/24 09:54:48;;;;;;;10.00;2.55;;;14.10;99.90;;;;;;5130567;27;20195;-60
2023/05/24 09:57:17;;;;;;;12.88;3.42;;;14.10;99.90;;;;;;5133096;27;20061;-58
2023/05/24 09:59:43;;;;;;;8.98;2.35;;;14.60;99.90;;;;;;5131888;27;20046;-59
2023/05/24 10:02:10;;;;;;;7.55;2.35;;;15.00;99.90;;;;;;5131618;27;20509;-59
2023/05/24 10:04:37;;;;;;;12.95;2.67;;;15.30;99.90;;;;;;5129006;27;20613;-58
2023/05/24 10:07:07;;;;;;;7.43;2.60;;;15.30;99.90;;;;;;5131634;27;20438;-59
2023/05/24 10:09:35;;;;;;;11.38;2.63;;;15.20;99.90;;;;;;5131580;27;20141;-59
2023/05/24 10:12:03;;;;;;;8.20;2.40;;;14.90;99.90;;;;;;5131274;27;20043;-58
2023/05/24 10:14:35;;;;;;;9.00;2.60;;;15.00;99.90;;;;;;5132221;27;20449;-57
2023/05/24 10:17:05;;;;;;;12.35;2.83;;;15.00;99.90;;;;;;5114206;27;20051;-58
2023/05/24 10:19:32;;;;;;;12.50;3.28;;;14.90;99.90;;;;;;5099251;27;20054;-59
2023/05/24 10:21:59;;;;;;;14.20;3.55;;;14.70;99.90;;;;;;5110522;28;20742;-58
2023/05/24 10:24:29;;;;;;;12.07;3.15;;;16.50;99.90;;;;;;5109404;28;20035;-59
2023/05/24 10:26:56;;;;;;;12.40;3.28;;;14.80;99.90;;;;;;5111218;28;20342;-58
2023/05/24 10:29:33;;;;;;;13.15;3.08;;;15.20;99.90;;;;;;5111298;28;20564;-59
2023/05/24 10:32:00;;;;;;;13.02;3.13;;;15.20;99.90;;;;;;5112897;28;20058;-57
2023/05/24 10:34:26;;;;;;;12.73;3.38;;;14.90;99.90;;;;;;5111535;27;20286;-59
2023/05/24 10:36:52;;;;;;;10.90;2.92;;;14.70;99.90;;;;;;5111091;28;20172;-58
2023/05/24 10:39:21;;;;;;;13.55;3.78;;;14.60;99.90;;;;;;5113070;28;20439;-58
2023/05/24 10:41:47;;;;;;;13.27;3.33;;;14.30;99.90;;;;;;5112812;28;20050;-58
2023/05/24 10:44:16;;;;;;;16.40;3.28;;;14.70;99.90;;;;;;5111952;28;20379;-58
2023/05/24 10:47:02;;;;;;;13.23;3.30;;;14.90;99.90;;;;;;5111785;28;20039;-58
2023/05/24 10:49:28;;;;;;;13.85;3.33;;;15.30;99.90;;;;;;5111672;28;20039;-58
2023/05/24 10:52:01;;;;;;;10.18;2.65;;;15.30;99.90;;;;;;5113307;28;20034;-58
2023/05/24 10:54:27;;;;;;;11.52;2.80;;;15.50;99.90;;;;;;5112758;28;20176;-58
2023/05/24 10:56:53;;;;;;;11.02;2.88;;;15.80;99.90;;;;;;5112001;28;20145;-58
2023/05/24 10:59:23;;;;;;;16.50;2.90;;;15.80;99.90;;;;;;5113039;28;20627;-58
2023/05/24 11:01:57;;;;;;;13.93;3.45;;;15.50;99.90;;;;;;5111122;28;20030;-58
2023/05/24 11:04:24;;;;;;;15.35;3.03;;;15.20;99.90;;;;;;5110533;28;20051;-58
2023/05/24 11:06:56;;;;;;;17.63;3.30;;;15.00;99.90;;;;;;5109255;28;20141;-58
2023/05/24 11:09:23;;;;;;;11.55;2.75;;;14.70;99.90;;;;;;5108698;28;20039;-58
2023/05/24 11:11:53;;;;;;;13.70;3.10;;;15.20;99.90;;;;;;5111156;27;20142;-58
2023/05/24 11:14:23;;;;;;;14.57;3.33;;;15.30;99.90;;;;;;5110591;28;20072;-58
2023/05/24 11:16:50;;;;;;;12.68;2.75;;;15.10;99.90;;;;;;5097838;28;20086;-58
2023/05/24 11:19:33;;;;;;;12.52;3.03;;;15.60;99.90;;;;;;5106962;28;20047;-59
2023/05/24 11:22:02;;;;;;;14.20;3.35;;;16.10;99.90;;;;;;5109435;28;20039;-59
2023/05/24 11:24:29;;;;;;;10.52;2.80;;;16.50;99.90;;;;;;5111414;27;20629;-59
2023/05/24 11:26:55;;;;;;;15.13;3.10;;;16.30;99.90;;;;;;5111801;27;20039;-59
2023/05/24 11:29:22;;;;;;;13.40;2.70;;;15.90;99.90;;;;;;5114092;27;20047;-58
2023/05/24 11:31:52;;;;;;;14.60;3.45;;;15.80;99.90;;;;;;5097395;27;20100;-59
2023/05/24 11:34:23;;;;;;;12.27;3.03;;;15.30;99.90;;;;;;5111786;27;20492;-59
2023/05/24 11:36:50;;;;;;;12.90;3.08;;;15.70;99.90;;;;;;5113586;27;20039;-59
2023/05/24 11:39:17;;;;;;;14.65;3.10;;;15.90;99.90;;;;;;5113854;27;20050;-59
2023/05/24 11:41:43;;;;;;;14.93;4.57;;;16.40;99.90;;;;;;5114194;27;20204;-59
2023/05/24 11:44:10;;;;;;;11.45;2.97;;;16.70;99.90;;;;;;5113936;27;20070;-59
2023/05/24 11:46:38;;;;;;;12.68;3.22;;;17.20;99.90;;;;;;5114099;27;20136;-60
2023/05/24 11:49:04;;;;;;;10.52;2.65;;;17.10;99.90;;;;;;5112261;27;20051;-59
2023/05/24 11:51:32;;;;;;;12.60;2.92;;;17.20;99.90;;;;;;5114068;27;20031;-60
2023/05/24 11:53:58;;;;;;;9.60;2.53;;;17.10;99.90;;;;;;5115351;27;20389;-59
2023/05/24 11:56:26;;;;;;;12.45;2.60;;;16.80;99.90;;;;;;5114334;27;20055;-59
2023/05/24 11:59:03;;;;;;;9.88;2.42;;;16.10;99.90;;;;;;5115283;27;20047;-58
2023/05/24 12:01:29;;;;;;;13.20;2.78;;;15.50;99.90;;;;;;5114951;27;20047;-59
2023/05/24 12:03:55;;;;;;;10.57;2.83;;;15.10;99.90;;;;;;5113201;27;20918;-59
2023/05/24 12:06:21;;;;;;;9.73;3.03;;;15.30;99.90;;;;;;5111833;27;20035;-59
2023/05/24 12:08:48;;;;;;;10.57;2.80;;;15.20;99.90;;;;;;5110402;27;20047;-59
2023/05/24 12:11:16;;;;;;;11.68;2.85;;;15.60;99.90;;;;;;5113875;27;20055;-59
2023/05/24 12:13:42;;;;;;;12.60;3.83;;;15.90;99.90;;;;;;5111695;27;20027;-59
2023/05/24 12:16:11;;;;;;;11.13;2.38;;;14.60;99.90;;;;;;5112854;27;20140;-59
2023/05/24 12:18:38;;;;;;;14.57;3.38;;;15.40;99.90;;;;;;5122520;27;20090;-59
2023/05/24 12:21:08;;;;;;;8.52;2.65;;;15.00;99.90;;;;;;5133685;27;20075;-59
2023/05/24 12:23:34;;;;;;;9.30;2.80;;;14.90;99.90;;;;;;5117006;27;20069;-59
2023/05/24 12:26:01;;;;;;;12.10;2.70;;;14.90;99.90;;;;;;5133332;27;20037;-59
2023/05/24 12:28:31;;;;;;;11.30;2.65;;;14.90;99.90;;;;;;5133957;27;20405;-60
2023/05/24 12:30:56;;;;;;;10.40;2.60;;;15.30;99.90;;;;;;5134217;27;20277;-60
2023/05/24 12:33:23;;;;;;;13.70;3.55;;;15.00;99.90;;;;;;5134982;27;20039;-59
2023/05/24 12:35:48;;;;;;;11.32;2.90;;;14.90;99.90;;;;;;5132749;27;20150;-59
2023/05/24 12:38:18;;;;;;;13.52;2.67;;;14.80;99.90;;;;;;5133567;27;20768;-59
2023/05/24 12:40:46;;;;;;;11.43;3.17;;;15.10;99.90;;;;;;5132035;27;20100;-59
2023/05/24 12:43:14;;;;;;;10.43;2.70;;;14.70;99.90;;;;;;5134284;27;20042;-59
2023/05/24 12:45:40;;;;;;;13.05;3.20;;;14.60;99.90;;;;;;5131942;27;20113;-59